createdAt,value
2023-04-13T00:01:01.775Z,8.25
2023-04-13T00:03:34.396Z,8.16
2023-04-13T00:06:04.260Z,8.29
2023-04-13T00:08:36.029Z,7.86
2023-04-13T00:11:07.821Z,7.97
2023-04-13T00:13:43.121Z,7.95
2023-04-13T00:16:14.024Z,7.76
2023-04-13T00:18:46.356Z,7.73
2023-04-13T00:21:17.320Z,7.61
2023-04-13T00:23:47.460Z,7.43
2023-04-13T00:26:20.775Z,7.37
2023-04-13T00:28:50.568Z,7.10
2023-04-13T00:31:21.367Z,7.40
2023-04-13T00:33:53.740Z,7.31
2023-04-13T00:36:24.621Z,7.28
2023-04-13T00:38:54.817Z,7.35
2023-04-13T00:41:24.609Z,7.30
2023-04-13T00:43:54.851Z,7.32
2023-04-13T00:46:25.265Z,7.24
2023-04-13T00:48:58.357Z,7.22
2023-04-13T00:51:30.291Z,6.98
2023-04-13T00:54:00.894Z,7.16
2023-04-13T00:56:31.090Z,7.20
2023-04-13T00:59:00.829Z,7.28
2023-04-13T01:01:30.636Z,7.15
2023-04-13T01:04:03.081Z,7.28
2023-04-13T01:06:42.172Z,7.23
2023-04-13T01:09:14.297Z,7.13
2023-04-13T01:11:50.768Z,7.24
2023-04-13T01:14:27.507Z,7.29
2023-04-13T01:17:06.038Z,7.25
2023-04-13T01:19:52.461Z,7.20
2023-04-13T01:22:25.700Z,7.27
2023-04-13T01:25:12.277Z,7.27
2023-04-13T01:27:51.848Z,7.11
2023-04-13T01:30:26.278Z,7.26
2023-04-13T01:32:59.590Z,7.18
2023-04-13T01:35:32.106Z,6.99
2023-04-13T01:38:02.604Z,7.07
2023-04-13T01:40:35.106Z,7.17
2023-04-13T01:43:07.451Z,7.11
2023-04-13T01:45:53.809Z,6.94
2023-04-13T01:48:31.768Z,7.09
2023-04-13T01:51:11.337Z,7.12
2023-04-13T01:53:51.215Z,7.08
2023-04-13T01:56:23.339Z,7.12
2023-04-13T01:59:02.618Z,7.13
2023-04-13T02:01:33.402Z,7.04
2023-04-13T02:04:03.910Z,7.07
2023-04-13T02:06:35.215Z,7.06
2023-04-13T02:09:08.459Z,7.17
2023-04-13T02:11:38.871Z,7.16
2023-04-13T02:14:12.822Z,6.97
2023-04-13T02:16:43.883Z,7.32
2023-04-13T02:19:16.763Z,7.28
2023-04-13T02:21:46.627Z,7.45
2023-04-13T02:24:17.149Z,7.44
2023-04-13T02:26:48.084Z,7.46
2023-04-13T02:29:20.468Z,7.57
2023-04-13T02:31:50.648Z,7.55
2023-04-13T02:34:20.511Z,7.52
2023-04-13T02:36:50.300Z,7.59
2023-04-13T02:39:21.103Z,7.67
2023-04-13T02:41:51.929Z,7.63
2023-04-13T02:44:27.297Z,7.60
2023-04-13T02:47:01.568Z,7.62
2023-04-13T02:49:31.502Z,7.66
2023-04-13T02:52:13.377Z,7.45
2023-04-13T02:54:54.426Z,7.73
2023-04-13T02:57:27.311Z,7.66
2023-04-13T03:00:01.776Z,7.40
2023-04-13T03:02:43.262Z,7.57
2023-04-13T03:05:13.646Z,7.48
2023-04-13T03:07:43.515Z,7.30
2023-04-13T03:10:14.261Z,7.48
2023-04-13T03:12:45.749Z,7.48
2023-04-13T03:15:18.978Z,7.46
2023-04-13T03:17:48.857Z,7.59
2023-04-13T03:20:23.960Z,7.46
2023-04-13T03:22:58.922Z,7.45
2023-04-13T03:25:33.648Z,7.57
2023-04-13T03:28:04.733Z,7.43
2023-04-13T03:30:42.560Z,7.40
2023-04-13T03:33:12.501Z,7.45
2023-04-13T03:35:42.770Z,7.56
2023-04-13T03:38:21.307Z,7.55
2023-04-13T03:40:51.908Z,7.56
2023-04-13T03:43:21.832Z,7.60
2023-04-13T03:46:04.348Z,7.58
2023-04-13T03:48:35.102Z,7.59
2023-04-13T03:51:07.903Z,7.51
2023-04-13T03:53:49.738Z,7.59
2023-04-13T03:56:24.354Z,7.52
2023-04-13T03:58:54.481Z,7.53
2023-04-13T04:01:30.598Z,7.60
2023-04-13T04:04:00.778Z,7.60
2023-04-13T04:06:32.769Z,7.38
2023-04-13T04:09:13.566Z,7.66
2023-04-13T04:11:47.484Z,7.64
2023-04-13T04:14:22.634Z,7.67
2023-04-13T04:17:04.182Z,7.55
2023-04-13T04:19:35.536Z,7.58
2023-04-13T04:22:05.724Z,7.72
2023-04-13T04:24:39.462Z,7.63
2023-04-13T04:27:09.226Z,7.72
2023-04-13T04:29:39.009Z,7.73
2023-04-13T04:32:24.708Z,7.76
2023-04-13T04:34:56.725Z,7.61
2023-04-13T04:37:28.142Z,7.73
2023-04-13T04:40:08.278Z,7.83
2023-04-13T04:42:38.213Z,7.61
2023-04-13T04:45:14.391Z,7.80
2023-04-13T04:47:50.608Z,7.83
2023-04-13T04:50:24.063Z,7.68
2023-04-13T04:53:00.016Z,7.73
2023-04-13T04:55:29.972Z,7.62
2023-04-13T04:58:00.565Z,7.79
2023-04-13T05:00:31.654Z,7.94
2023-04-13T05:03:20.808Z,7.61
2023-04-13T05:05:56.709Z,7.84
2023-04-13T05:08:32.324Z,7.91
2023-04-13T05:11:03.604Z,7.94
2023-04-13T05:13:33.422Z,7.98
2023-04-13T05:16:14.052Z,7.92
2023-04-13T05:18:50.714Z,8.01
2023-04-13T05:21:43.388Z,7.96
2023-04-13T05:24:13.626Z,8.08
2023-04-13T05:26:45.436Z,7.83
2023-04-13T05:29:19.710Z,8.00
2023-04-13T05:31:50.273Z,8.01
2023-04-13T05:34:23.528Z,7.99
2023-04-13T05:37:05.535Z,8.76
2023-04-13T05:39:35.496Z,8.75
2023-04-13T05:42:05.359Z,8.58
2023-04-13T05:44:40.145Z,8.75
2023-04-13T05:47:09.954Z,8.78
2023-04-13T05:49:42.698Z,8.85
2023-04-13T05:52:13.439Z,8.60
2023-04-13T05:54:50.132Z,8.74
2023-04-13T05:57:22.549Z,8.89
2023-04-13T05:59:54.790Z,8.81
2023-04-13T06:02:29.457Z,8.60
2023-04-13T06:05:02.280Z,8.96
2023-04-13T06:07:32.574Z,9.01
2023-04-13T06:10:03.112Z,9.02
2023-04-13T06:12:33.775Z,8.98
2023-04-13T06:15:05.211Z,8.85
2023-04-13T06:17:35.002Z,9.08
2023-04-13T06:20:10.886Z,9.14
2023-04-13T06:22:40.752Z,9.18
2023-04-13T06:25:12.289Z,9.21
2023-04-13T06:27:43.655Z,9.30
2023-04-13T06:30:15.027Z,9.25
2023-04-13T06:32:45.274Z,9.45
2023-04-13T06:35:20.941Z,9.45
2023-04-13T06:37:52.335Z,9.35
2023-04-13T06:40:28.318Z,9.53
2023-04-13T06:43:07.363Z,9.58
2023-04-13T06:45:47.090Z,9.58
2023-04-13T06:48:23.009Z,9.30
2023-04-13T06:51:01.903Z,9.48
2023-04-13T06:53:34.380Z,9.46
2023-04-13T06:56:04.167Z,9.53
2023-04-13T06:58:34.658Z,9.39
2023-04-13T07:01:04.513Z,9.42
2023-04-13T07:03:36.971Z,9.47
2023-04-13T07:06:11.800Z,9.42
2023-04-13T07:08:42.818Z,9.37
2023-04-13T07:11:13.529Z,9.42
2023-04-13T07:13:44.881Z,9.33
2023-04-13T07:16:17.117Z,9.28
2023-04-13T07:18:50.229Z,9.33
2023-04-13T07:21:22.607Z,9.38
2023-04-13T07:24:04.451Z,9.43
2023-04-13T07:26:35.670Z,9.32
2023-04-13T07:29:12.281Z,9.36
2023-04-13T07:31:43.881Z,9.48
2023-04-13T07:34:14.665Z,9.27
2023-04-13T07:36:50.931Z,9.39
2023-04-13T07:39:23.744Z,9.24
2023-04-13T07:41:56.706Z,9.17
2023-04-13T07:44:35.135Z,9.40
2023-04-13T07:47:05.568Z,9.39
2023-04-13T07:49:36.487Z,9.46
2023-04-13T07:52:12.388Z,9.49
2023-04-13T07:54:43.317Z,9.69
2023-04-13T07:57:14.819Z,9.60
2023-04-13T07:59:49.842Z,9.82
2023-04-13T08:02:20.736Z,9.70
2023-04-13T08:04:53.784Z,9.85
2023-04-13T08:07:32.145Z,10.14
2023-04-13T08:10:04.357Z,10.29
2023-04-13T08:12:34.261Z,10.48
2023-04-13T08:15:04.019Z,10.56
2023-04-13T08:17:34.117Z,10.52
2023-04-13T08:20:06.270Z,10.80
2023-04-13T08:22:39.550Z,10.93
2023-04-13T08:25:10.351Z,11.05
2023-04-13T08:27:40.789Z,10.84
2023-04-13T08:30:14.671Z,10.90
2023-04-13T08:32:58.149Z,11.12
2023-04-13T08:35:28.454Z,11.12
2023-04-13T08:38:01.397Z,10.99
2023-04-13T08:40:31.503Z,10.63
2023-04-13T08:43:03.373Z,10.64
2023-04-13T08:45:35.000Z,10.69
2023-04-13T08:48:05.402Z,10.60
2023-04-13T08:50:39.694Z,10.63
2023-04-13T08:53:14.194Z,10.53
2023-04-13T08:55:47.613Z,10.55
2023-04-13T08:58:23.515Z,10.53
2023-04-13T09:00:53.690Z,10.73
2023-04-13T09:03:29.014Z,10.87
2023-04-13T09:06:02.109Z,11.07
2023-04-13T09:08:37.420Z,11.24
2023-04-13T09:11:10.824Z,11.44
2023-04-13T09:13:40.586Z,11.51
2023-04-13T09:16:12.157Z,11.49
2023-04-13T09:18:55.704Z,11.57
2023-04-13T09:21:25.941Z,11.84
2023-04-13T09:23:59.604Z,11.88
2023-04-13T09:26:29.367Z,11.88
2023-04-13T09:28:59.928Z,12.12
2023-04-13T09:31:30.429Z,12.09
2023-04-13T09:34:00.410Z,12.10
2023-04-13T09:36:32.729Z,12.15
2023-04-13T09:39:06.512Z,12.05
2023-04-13T09:41:37.581Z,12.11
2023-04-13T09:44:20.385Z,12.31
2023-04-13T09:47:00.301Z,12.28
2023-04-13T09:49:40.105Z,12.24
2023-04-13T09:52:10.304Z,12.11
2023-04-13T09:54:42.948Z,11.75
2023-04-13T09:57:12.768Z,12.00
2023-04-13T09:59:42.554Z,11.90
2023-04-13T10:02:13.057Z,12.60
2023-04-13T10:04:43.992Z,12.95
2023-04-13T10:07:13.787Z,12.90
2023-04-13T10:09:46.182Z,12.83
2023-04-13T10:12:19.468Z,12.60
2023-04-13T10:14:51.699Z,12.70
2023-04-13T10:17:34.551Z,12.77
2023-04-13T10:20:12.903Z,12.47
2023-04-13T10:22:45.970Z,12.60
2023-04-13T10:25:32.073Z,12.41
2023-04-13T10:28:03.738Z,12.17
2023-04-13T10:30:33.828Z,12.56
2023-04-13T10:33:08.352Z,12.68
2023-04-13T10:35:43.421Z,12.75
2023-04-13T10:38:15.352Z,12.81
2023-04-13T10:40:49.901Z,12.61
2023-04-13T10:43:29.576Z,12.37
2023-04-13T10:46:09.896Z,12.07
2023-04-13T10:48:40.107Z,12.01
2023-04-13T10:51:10.135Z,12.02
2023-04-13T10:53:39.881Z,12.04
2023-04-13T10:56:20.991Z,12.16
2023-04-13T10:58:56.880Z,12.14
2023-04-13T11:01:27.782Z,12.19
2023-04-13T11:04:05.315Z,12.55
2023-04-13T11:06:41.280Z,12.43
2023-04-13T11:09:13.179Z,12.42
2023-04-13T11:11:54.386Z,12.33
2023-04-13T11:14:24.456Z,12.10
2023-04-13T11:16:58.417Z,11.95
2023-04-13T11:19:28.445Z,12.02
2023-04-13T11:21:59.843Z,12.30
2023-04-13T11:24:30.094Z,12.32
2023-04-13T11:27:02.533Z,12.17
2023-04-13T11:29:32.434Z,12.13
2023-04-13T11:32:02.292Z,12.43
2023-04-13T11:34:33.209Z,12.54
2023-04-13T11:37:05.828Z,12.47
2023-04-13T11:39:39.005Z,12.28
2023-04-13T11:42:11.620Z,12.44
2023-04-13T11:44:45.715Z,12.58
2023-04-13T11:47:18.453Z,12.89
2023-04-13T11:49:48.612Z,13.15
2023-04-13T11:52:18.724Z,13.26
2023-04-13T11:54:49.309Z,13.39
2023-04-13T11:57:22.256Z,13.29
2023-04-13T11:59:54.266Z,13.37
2023-04-13T12:02:29.799Z,13.23
2023-04-13T12:05:00.889Z,13.57
2023-04-13T12:07:31.309Z,13.47
2023-04-13T12:10:05.693Z,13.42
2023-04-13T12:15:34.017Z,13.25
2023-04-13T12:18:14.349Z,13.29
2023-04-13T12:20:46.901Z,13.21
2023-04-13T12:23:23.318Z,13.10
2023-04-13T12:25:58.122Z,13.15
2023-04-13T12:28:38.297Z,13.03
2023-04-13T12:31:10.180Z,12.82
2023-04-13T12:33:40.037Z,12.75
2023-04-13T12:36:11.603Z,12.72
2023-04-13T12:38:41.426Z,12.66
2023-04-13T12:41:12.674Z,12.71
2023-04-13T12:43:45.206Z,13.01
2023-04-13T12:46:15.051Z,13.10
2023-04-13T12:48:44.956Z,13.20
2023-04-13T12:51:15.027Z,13.44
2023-04-13T12:53:45.606Z,13.45
2023-04-13T12:56:16.152Z,13.42
2023-04-13T12:58:48.646Z,13.50
2023-04-13T13:01:18.604Z,13.32
2023-04-13T13:03:48.471Z,13.32
2023-04-13T13:06:18.279Z,13.44
2023-04-13T13:08:48.039Z,13.30
2023-04-13T13:11:17.823Z,13.51
2023-04-13T13:13:50.187Z,13.37
2023-04-13T13:16:19.985Z,13.49
2023-04-13T13:19:00.836Z,13.43
2023-04-13T13:21:31.551Z,13.30
2023-04-13T13:24:01.394Z,13.30
2023-04-13T13:26:40.941Z,13.86
2023-04-13T13:29:18.133Z,13.69
2023-04-13T13:31:48.007Z,13.69
2023-04-13T13:34:17.788Z,13.79
2023-04-13T13:36:47.608Z,13.87
2023-04-13T13:39:17.459Z,13.74
2023-04-13T13:41:47.360Z,13.75
2023-04-13T13:44:19.758Z,13.55
2023-04-13T13:46:49.564Z,13.13
2023-04-13T13:49:22.007Z,13.49
2023-04-13T13:52:12.854Z,13.31
2023-04-13T13:54:50.403Z,13.15
2023-04-13T13:57:20.288Z,13.52
2023-04-13T13:59:52.654Z,13.36
2023-04-13T14:02:23.341Z,12.99
2023-04-13T14:04:53.254Z,13.25
2023-04-13T14:07:23.511Z,13.43
2023-04-13T14:09:53.302Z,13.57
2023-04-13T14:12:23.136Z,13.87
2023-04-13T14:14:55.786Z,14.15
2023-04-13T14:17:25.736Z,14.25
2023-04-13T14:19:55.558Z,14.32
2023-04-13T14:22:25.379Z,14.57
2023-04-13T14:24:55.642Z,14.67
2023-04-13T14:27:25.820Z,14.80
2023-04-13T14:29:58.161Z,14.90
2023-04-13T14:32:28.011Z,14.86
2023-04-13T14:34:59.387Z,14.93
2023-04-13T14:37:29.762Z,14.63
2023-04-13T14:39:59.525Z,14.48
2023-04-13T14:42:30.923Z,14.58
2023-04-13T14:45:04.885Z,14.56
2023-04-13T14:47:34.734Z,14.58
2023-04-13T14:50:04.902Z,14.72
2023-04-13T14:52:34.880Z,14.60
2023-04-13T14:55:05.716Z,14.69
2023-04-13T14:57:36.052Z,14.61
2023-04-13T15:00:15.775Z,14.49
2023-04-13T15:02:46.054Z,14.29
2023-04-13T15:05:16.340Z,14.09
2023-04-13T15:07:46.396Z,13.93
2023-04-13T15:10:16.526Z,13.74
2023-04-13T15:12:46.740Z,13.17
2023-04-13T15:15:19.291Z,12.93
2023-04-13T15:17:49.086Z,12.20
2023-04-13T15:20:18.962Z,12.62
2023-04-13T15:22:48.775Z,12.63
2023-04-13T15:25:18.736Z,12.74
2023-04-13T15:27:52.585Z,12.84
2023-04-13T15:30:31.144Z,12.95
2023-04-13T15:33:02.783Z,12.86
2023-04-13T15:35:33.426Z,12.85
2023-04-13T15:38:04.039Z,12.85
2023-04-13T15:40:36.383Z,12.88
2023-04-13T15:43:06.476Z,13.03
2023-04-13T15:45:38.911Z,13.05
2023-04-13T15:48:08.830Z,13.07
2023-04-13T15:50:38.665Z,13.05
2023-04-13T15:53:08.764Z,13.04
2023-04-13T15:55:38.557Z,13.01
2023-04-13T15:58:08.687Z,13.10
2023-04-13T16:00:41.083Z,13.05
2023-04-13T16:03:11.013Z,12.94
2023-04-13T16:05:40.993Z,13.07
2023-04-13T16:08:10.891Z,13.08
2023-04-13T16:10:41.724Z,12.94
2023-04-13T16:13:19.682Z,12.96
2023-04-13T16:15:57.436Z,12.79
2023-04-13T16:18:28.971Z,13.19
2023-04-13T16:21:02.498Z,13.14
2023-04-13T16:23:33.574Z,13.17
2023-04-13T16:26:03.860Z,13.24
2023-04-13T16:28:34.675Z,13.19
2023-04-13T16:31:11.341Z,13.06
2023-04-13T16:33:41.213Z,12.97
2023-04-13T16:36:12.469Z,12.75
2023-04-13T16:38:43.944Z,13.07
2023-04-13T16:41:13.766Z,13.14
2023-04-13T16:43:43.577Z,13.23
2023-04-13T16:46:16.474Z,13.30
2023-04-13T16:48:46.239Z,13.24
2023-04-13T16:51:16.226Z,13.36
2023-04-13T16:53:46.295Z,13.41
2023-04-13T16:56:17.175Z,13.42
2023-04-13T16:58:47.161Z,13.38
2023-04-13T17:01:19.641Z,13.58
2023-04-13T17:03:49.534Z,13.51
2023-04-13T17:06:19.440Z,13.30
2023-04-13T17:08:49.232Z,13.46
2023-04-13T17:11:19.079Z,13.48
2023-04-13T17:13:49.234Z,13.50
2023-04-13T17:16:21.680Z,13.52
2023-04-13T17:18:51.908Z,13.50
2023-04-13T17:21:21.719Z,13.54
2023-04-13T17:23:51.519Z,13.53
2023-04-13T17:26:21.594Z,13.49
2023-04-13T17:28:51.392Z,13.32
2023-04-13T17:31:23.791Z,13.61
2023-04-13T17:33:53.650Z,13.50
2023-04-13T17:36:24.470Z,13.44
2023-04-13T17:38:54.266Z,13.24
2023-04-13T17:41:24.069Z,13.18
2023-04-13T17:43:53.837Z,12.88
2023-04-13T17:46:26.468Z,12.91
2023-04-13T17:48:56.409Z,13.21
2023-04-13T17:51:26.538Z,13.23
2023-04-13T17:53:56.352Z,13.15
2023-04-13T17:56:26.277Z,13.22
2023-04-13T17:58:56.157Z,13.02
2023-04-13T18:01:29.281Z,13.05
2023-04-13T18:03:59.334Z,13.01
2023-04-13T18:06:30.628Z,12.96
2023-04-13T18:09:00.976Z,12.81
2023-04-13T18:11:31.066Z,12.77
2023-04-13T18:14:01.020Z,12.61
2023-04-13T18:16:34.437Z,12.56
2023-04-13T18:19:04.364Z,12.43
2023-04-13T18:21:34.136Z,12.40
2023-04-13T18:24:03.959Z,12.27
2023-04-13T18:26:33.751Z,12.34
2023-04-13T18:29:03.559Z,12.22
2023-04-13T18:31:36.056Z,12.18
2023-04-13T18:34:07.384Z,12.06
2023-04-13T18:36:37.243Z,11.91
2023-04-13T18:39:07.766Z,11.95
2023-04-13T18:41:39.048Z,11.96
2023-04-13T18:44:10.848Z,11.95
2023-04-13T18:46:43.886Z,12.03
2023-04-13T18:49:13.812Z,11.86
2023-04-13T18:51:44.045Z,11.90
2023-04-13T18:54:13.838Z,11.99
2023-04-13T18:56:43.640Z,11.77
2023-04-13T18:59:13.424Z,11.89
2023-04-13T19:01:46.021Z,11.84
2023-04-13T19:04:16.099Z,11.77
2023-04-13T19:06:45.968Z,11.55
2023-04-13T19:09:15.736Z,11.23
2023-04-13T19:11:50.268Z,11.29
2023-04-13T19:14:20.308Z,11.00
2023-04-13T19:16:53.227Z,10.84
2023-04-13T19:19:23.075Z,10.65
2023-04-13T19:21:55.596Z,10.76
2023-04-13T19:24:26.041Z,10.73
2023-04-13T19:26:56.643Z,10.85
2023-04-13T19:29:30.349Z,10.88
2023-04-13T19:32:02.768Z,10.96
2023-04-13T19:34:35.110Z,10.79
2023-04-13T19:37:04.971Z,10.96
2023-04-13T19:39:34.861Z,10.82
2023-04-13T19:42:04.672Z,10.82
2023-04-13T19:44:34.549Z,10.81
2023-04-13T19:47:06.913Z,10.88
2023-04-13T19:49:36.697Z,10.86
2023-04-13T19:52:06.736Z,10.92
2023-04-13T19:54:36.578Z,10.77
2023-04-13T19:57:06.511Z,10.62
2023-04-13T19:59:36.287Z,10.40
2023-04-13T20:02:08.651Z,10.38
2023-04-13T20:04:40.366Z,10.39
2023-04-13T20:07:10.619Z,10.37
2023-04-13T20:09:40.680Z,10.24
2023-04-13T20:12:10.587Z,10.14
2023-04-13T20:14:42.285Z,10.07
2023-04-13T20:17:16.366Z,10.17
2023-04-13T20:19:46.198Z,10.10
2023-04-13T20:22:18.362Z,10.04
2023-04-13T20:24:48.205Z,10.10
2023-04-13T20:27:18.010Z,10.12
2023-04-13T20:29:48.016Z,10.00
2023-04-13T20:32:20.581Z,10.08
2023-04-13T20:34:50.332Z,10.10
2023-04-13T20:37:20.114Z,10.14
2023-04-13T20:39:53.136Z,10.16
2023-04-13T20:42:23.883Z,10.07
2023-04-13T20:44:57.945Z,10.05
2023-04-13T20:47:31.618Z,10.04
2023-04-13T20:50:01.404Z,9.81
2023-04-13T20:52:31.467Z,9.83
2023-04-13T20:55:01.223Z,9.74
2023-04-13T20:57:31.024Z,9.67
2023-04-13T21:00:01.730Z,9.63
2023-04-13T21:02:34.534Z,9.58
2023-04-13T21:05:04.926Z,9.44
2023-04-13T21:07:34.877Z,9.51
2023-04-13T21:10:04.670Z,9.47
2023-04-13T21:12:34.424Z,9.57
2023-04-13T21:15:04.320Z,9.40
2023-04-13T21:17:36.775Z,9.25
2023-04-13T21:20:09.225Z,9.16
2023-04-13T21:22:39.400Z,9.06
2023-04-13T21:25:09.980Z,9.07
2023-04-13T21:27:39.892Z,8.99
2023-04-13T21:30:11.139Z,9.14
2023-04-13T21:32:43.544Z,9.25
2023-04-13T21:35:15.332Z,9.21
2023-04-13T21:37:45.104Z,9.10
2023-04-13T21:40:16.316Z,9.06
2023-04-13T21:42:46.087Z,9.02
2023-04-13T21:45:16.452Z,9.01
2023-04-13T21:47:49.237Z,9.09
2023-04-13T21:50:19.066Z,9.00
2023-04-13T21:52:48.874Z,9.03
2023-04-13T21:55:20.522Z,8.97
2023-04-13T21:57:51.319Z,9.03
2023-04-13T22:00:21.310Z,9.03
2023-04-13T22:02:55.614Z,8.88
2023-04-13T22:05:25.536Z,8.83
2023-04-13T22:07:55.312Z,8.75
2023-04-13T22:10:25.445Z,8.55
2023-04-13T22:12:55.233Z,8.40
2023-04-13T22:15:25.094Z,8.28
2023-04-13T22:17:57.475Z,8.26
2023-04-13T22:20:27.223Z,8.34
2023-04-13T22:22:57.031Z,8.09
2023-04-13T22:25:28.125Z,8.23
2023-04-13T22:27:57.979Z,8.35
2023-04-13T22:30:29.094Z,8.35
2023-04-13T22:33:01.511Z,8.37
2023-04-13T22:35:31.361Z,8.28
2023-04-13T22:38:01.111Z,8.29
2023-04-13T22:40:31.255Z,8.23
2023-04-13T22:43:01.005Z,8.29
2023-04-13T22:45:30.920Z,8.27
2023-04-13T22:48:03.380Z,8.29
2023-04-13T22:50:33.216Z,8.10
2023-04-13T22:53:02.995Z,8.21
2023-04-13T22:55:32.825Z,8.01
2023-04-13T22:58:02.561Z,7.87
2023-04-13T23:00:32.295Z,7.85
2023-04-13T23:03:05.012Z,7.71
2023-04-13T23:05:36.360Z,7.78
2023-04-13T23:08:06.403Z,7.62
2023-04-13T23:10:36.278Z,7.69
2023-04-13T23:13:06.718Z,7.72
2023-04-13T23:15:36.492Z,7.47
2023-04-13T23:18:09.005Z,7.56
2023-04-13T23:20:38.777Z,7.38
2023-04-13T23:23:08.562Z,7.54
2023-04-13T23:25:38.393Z,7.54
2023-04-13T23:28:08.221Z,7.61
2023-04-13T23:30:37.978Z,7.46
2023-04-13T23:33:10.326Z,7.58
2023-04-13T23:35:40.139Z,7.44
2023-04-13T23:38:09.901Z,7.41
2023-04-13T23:40:39.637Z,7.32
2023-04-13T23:43:09.368Z,7.28
2023-04-13T23:45:39.349Z,7.29
2023-04-13T23:48:11.932Z,7.26
2023-04-13T23:50:42.027Z,7.10
2023-04-13T23:53:12.210Z,7.28
2023-04-13T23:55:42.054Z,6.94
2023-04-13T23:58:11.819Z,7.02
